Data for 08/22/2013

Time Sea-Level Adjusted Pressure Absolute Pressure Temperature Relative Humidity Dew Point   
(mb) (inHg) (mb) (inHg) (C) (F) (%) (C) (F)
00:05 1022 30.18 851 25.13 19.6 67.4 36 4.3 39.8
00:10 1022 30.18 851 25.13 19.5 67.1 37 4.5 40
00:15 1022 30.18 851 25.13 19.4 66.9 37 4.4 40
00:20 1022 30.18 851 25.13 19.3 66.7 37 4.4 40
00:25 1022 30.18 851 25.13 19.2 66.5 37 4.4 40
00:30 1022 30.18 851 25.13 19.2 66.5 38 4.5 40.1
00:35 1022 30.18 851 25.13 19.2 66.5 38 4.6 40.2
00:40 1022 30.18 851 25.13 19.1 66.3 38 4.6 40.3
00:45 1022 30.18 851 25.13 19 66.2 38 4.6 40.2
00:50 1022 30.18 851 25.13 18.9 66.1 39 4.7 40.4
00:55 1022 30.18 851 25.13 18.9 66 39 4.6 40.3
01:00 1022 30.18 851 25.13 18.9 66 39 4.7 40.4
01:05 1022 30.18 851 25.13 18.8 65.9 39 4.6 40.3
01:10 1022 30.18 851 25.13 18.9 65.9 39 4.7 40.4
01:15 1022 30.18 851 25.13 18.8 65.8 39 4.7 40.5
01:20 1022 30.18 851 25.13 18.7 65.6 39 4.7 40.5
01:25 1022 30.18 851 25.13 18.7 65.7 39 4.6 40.3
01:30 1022 30.18 851 25.13 18.8 65.8 39 4.8 40.7
01:35 1022 30.18 851 25.13 18.6 65.5 40 4.8 40.7
01:40 1022 30.18 851 25.13 18.6 65.5 40 4.8 40.6
01:45 1022 30.18 851 25.13 18.6 65.5 40 4.8 40.6
01:50 1022 30.18 851 25.13 18.6 65.6 40 4.8 40.6
01:55 1022 30.18 851 25.13 18.6 65.5 40 4.8 40.7
02:00 1022 30.18 851 25.13 18.6 65.4 40 4.8 40.7
02:05 1022 30.18 851 25.13 18.5 65.3 40 4.9 40.8
02:10 1022 30.18 851 25.13 18.4 65.1 41 4.9 40.8
02:15 1022 30.18 851 25.13 18.3 65 41 5 40.9
02:20 1022 30.18 851 25.13 18.2 64.8 42 5 41.1
02:25 1022 30.18 851 25.13 18.1 64.6 42 5.1 41.2
02:30 1022 30.18 851 25.13 18 64.4 42 5 41
02:35 1022 30.18 851 25.13 17.9 64.3 42 5 41.1
02:40 1022 30.18 851 25.13 17.8 64.1 43 5.1 41.2
02:45 1022 30.18 851 25.13 17.8 64 43 5.1 41.1
02:50 1022 30.18 851 25.13 17.7 63.8 43 5.2 41.4
02:55 1022 30.18 851 25.13 17.6 63.6 44 5.2 41.3
03:00 1022 30.18 851 25.13 17.5 63.5 44 5.1 41.2
03:05 1022 30.18 851 25.13 17.4 63.4 44 5.2 41.3
03:10 1022 30.18 851 25.13 17.3 63.1 45 5.3 41.5
03:15 1022 30.18 851 25.13 17 62.6 46 5.3 41.6
03:20 1022 30.18 851 25.13 16.8 62.2 46 5.3 41.6
03:25 1022 30.18 852 25.16 16.6 61.9 47 5.3 41.5
03:30 1022 30.18 851 25.13 16.5 61.7 47 5.1 41.2
03:35 1022 30.18 851 25.13 16.5 61.8 47 5.3 41.6
03:40 1022 30.18 851 25.13 16.5 61.6 47 5.3 41.6
03:45 1022 30.18 851 25.13 16.4 61.6 47 5.3 41.6
03:50 1022 30.18 851 25.13 16.4 61.6 47 5.3 41.6
03:55 1022 30.18 851 25.13 16.5 61.7 47 5.3 41.6
04:00 1022 30.18 851 25.13 16.6 61.8 47 5.2 41.4
04:05 1022 30.18 851 25.13 16.8 62.2 46 5.3 41.6
04:10 1022 30.18 852 25.16 16.9 62.3 46 5.3 41.5
04:15 1022 30.18 852 25.16 16.9 62.3 46 5.4 41.7
04:20 1022 30.18 852 25.16 16.8 62.2 47 5.4 41.8
04:25 1022 30.18 852 25.16 16.7 62 47 5.6 42
04:30 1022 30.18 852 25.16 16.6 61.9 49 5.8 42.5
04:35 1022 30.18 852 25.16 16.4 61.4 52 6.7 44
04:40 1022 30.18 852 25.16 15.7 60.3 53 6.4 43.5
04:45 1022 30.18 852 25.16 15.7 60.3 51 5.6 42.1
04:50 1022 30.18 852 25.16 16.2 61.1 50 5.7 42.3
04:55 1022 30.18 852 25.16 16.3 61.3 50 5.9 42.6
05:00 1022 30.18 852 25.16 16.3 61.3 52 6.4 43.4
05:05 1022 30.18 852 25.16 15.6 60 55 6.7 44
05:10 1022 30.18 852 25.16 15.1 59.2 56 6.5 43.6
05:15 1022 30.18 852 25.16 15.1 59.1 57 6.6 43.9
05:20 1022 30.18 852 25.16 15 59 56 6.4 43.5
05:25 1022 30.18 852 25.16 15.2 59.4 54 6.2 43.1
05:30 1022 30.18 852 25.16 15.4 59.7 54 6.2 43.1
05:35 1022 30.18 851 25.13 15.5 59.9 54 6.3 43.4
05:40 1022 30.18 851 25.13 15.5 60 54 6.3 43.3
05:45 1022 30.18 851 25.13 15.5 59.8 54 6.3 43.4
05:50 1022 30.18 851 25.13 15.5 59.9 54 6.2 43.2
05:55 1022 30.18 851 25.13 15.6 60 53 6.1 42.9
06:00 1022 30.18 851 25.13 15.7 60.3 52 6.1 42.9
06:05 1022 30.18 851 25.13 15.7 60.3 53 6.2 43.2
06:10 1022 30.18 851 25.13 15.7 60.2 54 6.5 43.6
06:15 1022 30.18 851 25.13 15.6 60.1 54 6.4 43.4
06:20 1022 30.18 851 25.13 15.6 60.1 54 6.3 43.3
06:25 1022 30.18 851 25.13 15.8 60.4 53 6.3 43.3
06:30 1022 30.18 851 25.13 15.9 60.7 52 6.2 43.2
06:35 1022 30.18 851 25.13 16.2 61.2 52 6.4 43.5
06:40 1022 30.18 852 25.16 16.4 61.5 51 6.4 43.5
06:45 1022 30.18 852 25.16 16.5 61.8 50 6.3 43.3
06:50 1022 30.18 852 25.16 16.7 62.1 50 6.2 43.2
06:55 1022 30.18 852 25.16 16.9 62.4 49 6.2 43.1
07:00 1022 30.18 852 25.16 17 62.6 48 6.1 42.9
07:05 1023 30.21 852 25.16 17.2 62.9 48 6.1 43
07:10 1023 30.21 852 25.16 17.4 63.4 47 6.2 43.2
07:15 1022 30.18 852 25.16 17.6 63.7 47 6.2 43.1
07:20 1022 30.18 852 25.16 17.7 63.9 47 6.4 43.5
07:25 1022 30.18 852 25.16 17.9 64.1 48 6.9 44.5
07:30 1022 30.18 852 25.16 18 64.5 49 7.4 45.2
07:35 1022 30.18 852 25.16 18.2 64.8 48 7.2 45
07:40 1023 30.21 852 25.16 18.5 65.3 48 7.3 45.1
07:45 1023 30.21 852 25.16 18.8 65.8 48 7.7 45.8
07:50 1023 30.21 852 25.16 19.3 66.8 45 7.4 45.2
07:55 1023 30.21 852 25.16 19.5 67.2 43 6.9 44.5
08:00 1022 30.18 852 25.16 19.2 66.6 45 7.2 45
08:05 1022 30.18 852 25.16 19.6 67.3 43 6.9 44.4
08:10 1022 30.18 852 25.16 19.9 67.7 40 5.9 42.7
08:15 1022 30.18 852 25.16 19.8 67.6 41 6.3 43.4
08:20 1022 30.18 852 25.16 19.8 67.7 40 6 42.8
08:25 1022 30.18 852 25.16 20.3 68.5 42 7 44.6
08:30 1022 30.18 852 25.16 20.3 68.5 41 6.8 44.3
08:35 1022 30.18 852 25.16 20.5 68.9 39 6.2 43.2
08:40 1022 30.18 852 25.16 21.4 70.6 38 6.5 43.7
08:45 1022 30.18 852 25.16 21.6 70.9 36 6 42.7
08:50 1022 30.18 852 25.16 21.4 70.5 36 5.7 42.3
08:55 1022 30.18 851 25.13 21.3 70.3 36 6 42.8
09:00 1022 30.18 851 25.13 21 69.8 38 6.3 43.3
09:05 1022 30.18 851 25.13 21 69.8 37 5.9 42.7
09:10 1022 30.18 851 25.13 21.3 70.4 37 6.3 43.3
09:15 1022 30.18 851 25.13 21.7 71.1 37 6.8 44.2
09:20 1022 30.18 851 25.13 22 71.5 35 5.9 42.6
09:25 1022 30.18 851 25.13 22.1 71.7 34 5.7 42.2
09:30 1022 30.18 851 25.13 22.5 72.4 33 5.7 42.2
09:35 1022 30.18 851 25.13 22.5 72.5 33 5.6 42.1
09:40 1022 30.18 851 25.13 23 73.4 32 5.6 42.1
09:45 1022 30.18 851 25.13 23.7 74.7 30 5.5 42
09:50 1022 30.18 851 25.13 24.1 75.3 32 6.4 43.6
09:55 1022 30.18 851 25.13 24.2 75.5 30 5.9 42.7
10:00 1022 30.18 851 25.13 24.2 75.6 32 6.7 44.1
10:05 1022 30.18 851 25.13 24.8 76.6 27 4.6 40.3
10:10 1022 30.18 851 25.13 25.3 77.5 27 5.4 41.7
10:15 1022 30.18 851 25.13 25.3 77.5 27 5.1 41.2
10:20 1022 30.18 851 25.13 26.1 79.1 25 5 41
10:25 1021 30.15 851 25.13 27.1 80.7 26 5.9 42.7
10:30 1021 30.15 851 25.13 27.3 81.1 26 6.4 43.6
10:35 1021 30.15 851 25.13 27.2 81 24 5.5 41.8
10:40 1021 30.15 850 25.1 27.8 82.1 25 6.2 43.2
10:45 1021 30.15 850 25.1 27.1 80.8 26 6.2 43.2
10:50 1021 30.15 850 25.1 27 80.6 27 6.4 43.5
10:55 1021 30.15 850 25.1 27.5 81.5 26 6.3 43.4
11:00 1021 30.15 850 25.1 27.2 80.9 27 6.7 44.1
11:05 1021 30.15 850 25.1 27.3 81.1 27 6.9 44.4
11:10 1021 30.15 850 25.1 27.2 81 26 6.5 43.7
11:15 1021 30.15 850 25.1 27.1 80.8 27 6.7 44.1
11:20 1021 30.15 850 25.1 27.2 81 26 6.1 43
11:25 1021 30.15 850 25.1 28 82.4 26 6.8 44.3
11:30 1021 30.15 850 25.1 28.1 82.5 27 7.4 45.4
11:35 1021 30.15 850 25.1 27.9 82.1 26 6.6 43.9
11:40 1021 30.15 850 25.1 27.9 82.2 25 6.6 43.9
11:45 1021 30.15 850 25.1 28.1 82.6 24 6.1 43.1
11:50 1021 30.15 850 25.1 27.7 81.9 24 5.6 42.1
11:55 1020 30.12 850 25.1 27.9 82.3 23 5.4 41.7
12:00 1020 30.12 850 25.1 28.9 83.9 23 6.1 43.1
12:05 1020 30.12 849 25.07 29.4 85 22 5.5 41.9
12:10 1020 30.12 849 25.07 28.4 83.2 23 5.6 42.2
12:15 1020 30.12 849 25.07 28.8 83.9 22 5.5 41.8
12:20 1020 30.12 849 25.07 29.6 85.2 21 5.6 42
12:25 1020 30.12 849 25.07 29.6 85.2 21 5.1 41.2
12:30 1020 30.12 849 25.07 29 84.3 21 5.2 41.3
12:35 1020 30.12 849 25.07 29.5 85.1 22 5.7 42.2
12:40 1020 30.12 849 25.07 30.2 86.4 20 5.4 41.6
12:45 1020 30.12 849 25.07 30.7 87.2 20 5.6 42.1
12:50 1020 30.12 849 25.07 30.7 87.2 19 4.7 40.4
12:55 1020 30.12 849 25.07 31.2 88.2 18 4.7 40.4
13:00 1020 30.12 849 25.07 31.3 88.3 18 4.9 40.8
13:05 1019 30.09 849 25.07 31.4 88.4 22 7.3 45.1
13:10 1019 30.09 849 25.07 31 87.9 18 4.7 40.4
13:15 1019 30.09 849 25.07 30.9 87.7 18 4.5 40
13:20 1019 30.09 849 25.07 31.7 89 18 4.8 40.7
13:25 1019 30.09 849 25.07 31.8 89.3 18 5.3 41.5
13:30 1019 30.09 848 25.04 31 87.8 18 4.2 39.6
13:35 1019 30.09 848 25.04 31.5 88.8 18 4.6 40.2
13:40 1019 30.09 848 25.04 31.1 88 18 4.3 39.7
13:45 1019 30.09 848 25.04 30.3 86.5 18 3.3 38
13:50 1019 30.09 848 25.04 30.7 87.3 18 4.3 39.7
13:55 1019 30.09 848 25.04 30.7 87.3 19 4.5 40.1
14:00 1019 30.09 848 25.04 30.3 86.5 18 4 39.2
14:05 1019 30.09 848 25.04 29.8 85.6 20 4.7 40.4
14:10 1019 30.09 848 25.04 29.7 85.5 20 4.8 40.7
14:15 1019 30.09 848 25.04 29.7 85.5 20 4.7 40.5
14:20 1019 30.09 848 25.04 29.7 85.5 21 5.1 41.2
14:25 1019 30.09 848 25.04 29.7 85.4 20 4.9 40.8
14:30 1019 30.09 848 25.04 29.7 85.4 21 5.3 41.5
14:35 1019 30.09 848 25.04 29.3 84.8 22 6 42.8
14:40 1019 30.09 848 25.04 28.8 83.9 25 6.9 44.4
14:45 1019 30.09 848 25.04 27.9 82.3 26 7.1 44.7
14:50 1019 30.09 848 25.04 27.4 81.3 24 5.4 41.6
14:55 1019 30.09 848 25.04 26.9 80.3 27 6.4 43.5
15:00 1019 30.09 848 25.04 26.5 79.7 25 5.1 41.2
15:05 1019 30.09 848 25.04 26.7 80 23 3.8 38.8
15:10 1019 30.09 848 25.04 26.9 80.4 22 3.6 38.5
15:15 1019 30.09 848 25.04 27.2 81 22 4 39.2
15:20 1018 30.06 848 25.04 27.5 81.5 20 3 37.4
15:25 1018 30.06 848 25.04 28 82.4 20 2.9 37.3
15:30 1018 30.06 848 25.04 28.7 83.7 23 5.7 42.3
15:35 1018 30.06 848 25.04 28.2 82.8 23 5.4 41.6
15:40 1018 30.06 847 25.01 28.5 83.2 22 4.9 40.7
15:45 1018 30.06 847 25.01 29 84.1 21 4.8 40.6
15:50 1018 30.06 847 25.01 29.7 85.5 19 4.1 39.3
15:55 1018 30.06 847 25.01 29.7 85.4 19 3.9 39.1
16:00 1018 30.06 847 25.01 29.5 85.1 18 3.1 37.5
16:05 1018 30.06 847 25.01 29.4 85 18 2.8 37
16:10 1018 30.06 847 25.01 29.7 85.4 18 2.9 37.3
16:15 1018 30.06 847 25.01 29.7 85.5 20 4.5 40.1
16:20 1018 30.06 847 25.01 29.4 84.9 16 1 33.9
16:25 1018 30.06 847 25.01 29 84.1 18 2.6 36.6
16:30 1018 30.06 847 25.01 28.9 84 17 1.6 34.9
16:35 1018 30.06 847 25.01 28.9 83.9 17 1.3 34.4
16:40 1018 30.06 847 25.01 28.8 83.8 19 3.1 37.5
16:45 1018 30.06 847 25.01 28.8 83.8 19 3.3 38
16:50 1018 30.06 847 25.01 28.8 83.8 19 3.5 38.3
16:55 1018 30.06 847 25.01 28.9 83.9 20 4.3 39.8
17:00 1018 30.06 847 25.01 28.6 83.5 19 3.1 37.5
17:05 1018 30.06 847 25.01 28.5 83.2 24 6.2 43.2
17:10 1018 30.06 847 25.01 28.4 83.1 21 4.4 39.9
17:15 1018 30.06 847 25.01 28.4 83.2 21 4.4 40
17:20 1018 30.06 847 25.01 28.3 83 22 4.7 40.4
17:25 1018 30.06 847 25.01 28.2 82.8 23 5.6 42.1
17:30 1018 30.06 847 25.01 28.1 82.5 22 4.5 40
17:35 1018 30.06 847 25.01 28 82.3 24 5.6 42.1
17:40 1018 30.06 847 25.01 26.7 80 28 7 44.6
17:45 1018 30.06 847 25.01 25.3 77.6 30 6.7 44
17:50 1018 30.06 848 25.04 25 77 30 6.6 43.9
17:55 1018 30.06 848 25.04 24.8 76.6 31 7 44.5
18:00 1018 30.06 847 25.01 24.5 76.1 32 7 44.6
18:05 1018 30.06 847 25.01 24.4 75.9 32 7 44.7
18:10 1018 30.06 847 25.01 24.3 75.8 32 7 44.6
18:15 1018 30.06 848 25.04 24.3 75.7 33 7.2 44.9
18:20 1018 30.06 848 25.04 23.8 74.8 34 7 44.7
18:25 1018 30.06 848 25.04 23.6 74.5 34 7 44.6
18:30 1018 30.06 848 25.04 23.7 74.6 33 6.8 44.2
18:35 1018 30.06 848 25.04 23.7 74.7 34 7 44.6
18:40 1018 30.06 848 25.04 23.8 74.9 33 6.7 44.1
18:45 1018 30.06 848 25.04 23.9 75.1 33 6.9 44.5
18:50 1018 30.06 848 25.04 23.8 74.8 34 7.2 45
18:55 1018 30.06 848 25.04 23.6 74.4 34 6.9 44.4
19:00 1018 30.06 848 25.04 23.6 74.5 35 7.5 45.5
19:05 1018 30.06 848 25.04 23.4 74.1 36 7.5 45.5
19:10 1018 30.06 847 25.01 23.4 74.1 34 6.9 44.4
19:15 1018 30.06 847 25.01 23.5 74.3 34 7.2 44.9
19:20 1018 30.06 847 25.01 23.4 74.2 34 6.8 44.2
19:25 1018 30.06 847 25.01 23.5 74.4 34 6.8 44.2
19:30 1018 30.06 847 25.01 23.7 74.6 33 6.8 44.2
19:35 1018 30.06 847 25.01 23.8 74.9 32 6.5 43.8
19:40 1018 30.06 847 25.01 23.7 74.6 35 7.6 45.6
19:45 1018 30.06 847 25.01 23.1 73.6 35 7.2 44.9
19:50 1018 30.06 847 25.01 22.8 73 38 7.8 46.1
19:55 1018 30.06 847 25.01 22.7 72.8 38 7.8 46
20:00 1018 30.06 847 25.01 22.2 72 40 8.2 46.7
20:05 1018 30.06 847 25.01 22.1 71.8 39 7.9 46.1
20:10 1018 30.06 848 25.04 21.7 71.1 41 8.2 46.7
20:15 1018 30.06 848 25.04 21.6 70.8 38 7 44.5
20:20 1018 30.06 848 25.04 21.9 71.3 38 7.1 44.8
20:25 1018 30.06 848 25.04 22 71.5 38 7.1 44.8
20:30 1018 30.06 848 25.04 22 71.6 38 7.1 44.8
20:35 1018 30.06 848 25.04 22.1 71.8 37 7 44.5
20:40 1019 30.09 848 25.04 22.1 71.7 38 7.2 44.9
20:45 1019 30.09 848 25.04 22 71.6 38 7.1 44.8
20:50 1018 30.06 848 25.04 22 71.5 37 6.8 44.3
20:55 1019 30.09 848 25.04 22 71.7 38 7.3 45.2
21:00 1019 30.09 848 25.04 22.1 71.7 38 7.3 45.1
21:05 1019 30.09 848 25.04 21.9 71.4 39 7.5 45.4
21:10 1019 30.09 848 25.04 21.9 71.3 40 7.7 45.8
21:15 1019 30.09 848 25.04 21.8 71.3 39 7.6 45.7
21:20 1019 30.09 848 25.04 21.8 71.3 41 8 46.5
21:25 1019 30.09 848 25.04 21.8 71.3 41 8.3 47
21:30 1019 30.09 848 25.04 21.3 70.4 43 8.4 47.2
21:35 1019 30.09 848 25.04 21.1 70 43 8.1 46.6
21:40 1019 30.09 848 25.04 21 69.8 48 9.6 49.3
21:45 1019 30.09 849 25.07 20.8 69.4 52 10.6 51.2
21:50 1019 30.09 849 25.07 20.6 69.1 53 10.9 51.5
21:55 1019 30.09 848 25.04 20.4 68.7 52 10.4 50.8
22:00 1019 30.09 848 25.04 20.2 68.4 55 10.9 51.6
22:05 1019 30.09 848 25.04 19.6 67.2 57 10.8 51.5
22:10 1020 30.12 849 25.07 19.3 66.8 64 12.3 54.2
22:15 1020 30.12 849 25.07 18.5 65.3 70 13 55.4
22:20 1020 30.12 849 25.07 18 64.4 66 11.6 52.9
22:25 1020 30.12 849 25.07 18.4 65.1 58 10.1 50.1
22:30 1020 30.12 849 25.07 18.9 66.1 62 11.6 52.9
22:35 1020 30.12 849 25.07 18.7 65.6 69 13 55.3
22:40 1020 30.12 849 25.07 17.7 63.9 76 13.5 56.3
22:45 1020 30.12 849 25.07 17.2 62.9 77 13.1 55.6
22:50 1020 30.12 849 25.07 17.1 62.8 72 12.1 53.7
22:55 1020 30.12 849 25.07 17.4 63.2 71 12.1 53.7
23:00 1020 30.12 849 25.07 17.3 63.2 67 11.2 52.1
23:05 1020 30.12 849 25.07 17.5 63.6 68 11.6 52.9
23:10 1020 30.12 849 25.07 17.6 63.6 68 11.8 53.2
23:15 1020 30.12 849 25.07 17.6 63.7 69 11.9 53.5
23:20 1020 30.12 849 25.07 17.4 63.4 69 11.8 53.2
23:25 1020 30.12 849 25.07 17.1 62.8 67 11 51.8
23:30 1019 30.09 849 25.07 17 62.6 67 10.8 51.5
23:35 1019 30.09 849 25.07 17 62.6 62 9.9 49.7
23:40 1019 30.09 849 25.07 17.6 63.6 59 9.6 49.2
23:45 1019 30.09 849 25.07 17.8 64 61 10.3 50.6
23:50 1020 30.12 849 25.07 17.3 63.2 61 9.8 49.6
23:55 1020 30.12 849 25.07 17.6 63.7 62 10.4 50.6
24:00 1020 30.12 849 25.07 17.6 63.6 60 9.8 49.7